sensor_id;sensor_type;location;lat;lon;timestamp;pressure;altitude;pressure_sealevel;temperature;humidity
17781;BME280;8498;52.516;13.790;2023-05-01T00:00:30;101652.09;;;5.98;81.34
17781;BME280;8498;52.516;13.790;2023-05-01T00:05:58;101645.97;;;5.98;81.58
17781;BME280;8498;52.516;13.790;2023-05-01T00:11:21;101642.38;;;6.00;81.25
17781;BME280;8498;52.516;13.790;2023-05-01T00:16:46;101641.50;;;6.00;81.40
17781;BME280;8498;52.516;13.790;2023-05-01T00:22:09;101637.22;;;5.96;81.50
17781;BME280;8498;52.516;13.790;2023-05-01T00:27:31;101635.41;;;5.98;81.32
17781;BME280;8498;52.516;13.790;2023-05-01T00:32:54;101640.63;;;5.99;81.70
17781;BME280;8498;52.516;13.790;2023-05-01T00:38:16;101638.81;;;6.01;81.36
17781;BME280;8498;52.516;13.790;2023-05-01T00:43:39;101633.47;;;6.03;80.95
17781;BME280;8498;52.516;13.790;2023-05-01T00:49:01;101632.56;;;6.04;81.20
17781;BME280;8498;52.516;13.790;2023-05-01T00:54:24;101623.59;;;6.09;81.23
17781;BME280;8498;52.516;13.790;2023-05-01T00:59:48;101621.97;;;6.05;81.03
17781;BME280;8498;52.516;13.790;2023-05-01T01:05:11;101622.91;;;6.03;80.85
17781;BME280;8498;52.516;13.790;2023-05-01T01:10:52;101620.28;;;6.03;81.15
17781;BME280;8498;52.516;13.790;2023-05-01T01:16:26;101619.84;;;6.15;80.67
17781;BME280;8498;52.516;13.790;2023-05-01T01:21:56;101615.78;;;6.31;80.53
17781;BME280;8498;52.516;13.790;2023-05-01T01:38:43;101595.59;;;6.30;79.83
17781;BME280;8498;52.516;13.790;2023-05-01T01:44:11;101588.25;;;6.38;79.44
17781;BME280;8498;52.516;13.790;2023-05-01T01:49:42;101598.56;;;6.44;79.33
17781;BME280;8498;52.516;13.790;2023-05-01T01:55:10;101594.91;;;6.48;78.63
17781;BME280;8498;52.516;13.790;2023-05-01T02:00:34;101588.66;;;6.51;78.06
17781;BME280;8498;52.516;13.790;2023-05-01T02:05:57;101574.81;;;6.44;77.93
17781;BME280;8498;52.516;13.790;2023-05-01T02:11:22;101575.56;;;6.48;78.31
17781;BME280;8498;52.516;13.790;2023-05-01T02:16:47;101581.94;;;6.42;77.47
17781;BME280;8498;52.516;13.790;2023-05-01T02:22:11;101573.31;;;6.37;77.95
17781;BME280;8498;52.516;13.790;2023-05-01T02:27:37;101573.75;;;6.25;78.36
17781;BME280;8498;52.516;13.790;2023-05-01T02:33:01;101568.09;;;6.12;78.78
17781;BME280;8498;52.516;13.790;2023-05-01T02:38:24;101567.66;;;6.00;79.37
17781;BME280;8498;52.516;13.790;2023-05-01T02:43:48;101565.25;;;5.92;79.71
17781;BME280;8498;52.516;13.790;2023-05-01T02:49:16;101557.31;;;5.94;79.46
17781;BME280;8498;52.516;13.790;2023-05-01T02:54:39;101558.28;;;5.91;79.48
17781;BME280;8498;52.516;13.790;2023-05-01T03:00:03;101541.88;;;5.81;79.71
17781;BME280;8498;52.516;13.790;2023-05-01T03:05:26;101538.16;;;5.88;79.81
17781;BME280;8498;52.516;13.790;2023-05-01T03:10:48;101517.06;;;5.88;79.68
17781;BME280;8498;52.516;13.790;2023-05-01T03:16:11;101525.31;;;5.78;80.19
17781;BME280;8498;52.516;13.790;2023-05-01T03:21:33;101513.69;;;5.83;79.74
17781;BME280;8498;52.516;13.790;2023-05-01T03:26:55;101501.13;;;5.92;79.03
17781;BME280;8498;52.516;13.790;2023-05-01T03:32:18;101507.66;;;6.05;77.88
17781;BME280;8498;52.516;13.790;2023-05-01T03:37:42;101499.31;;;6.17;77.74
17781;BME280;8498;52.516;13.790;2023-05-01T03:43:07;101489.56;;;6.19;77.12
17781;BME280;8498;52.516;13.790;2023-05-01T03:48:30;101495.06;;;6.13;77.31
17781;BME280;8498;52.516;13.790;2023-05-01T03:53:52;101501.84;;;6.20;77.01
17781;BME280;8498;52.516;13.790;2023-05-01T03:59:17;101494.59;;;6.25;76.46
17781;BME280;8498;52.516;13.790;2023-05-01T04:04:40;101500.59;;;6.30;76.04
17781;BME280;8498;52.516;13.790;2023-05-01T04:10:02;101494.00;;;6.42;75.84
17781;BME280;8498;52.516;13.790;2023-05-01T04:15:26;101499.59;;;6.56;75.35
17781;BME280;8498;52.516;13.790;2023-05-01T04:20:49;101497.75;;;6.58;75.00
17781;BME280;8498;52.516;13.790;2023-05-01T04:26:12;101487.69;;;6.68;74.73
17781;BME280;8498;52.516;13.790;2023-05-01T04:31:34;101488.13;;;6.79;74.18
17781;BME280;8498;52.516;13.790;2023-05-01T04:36:57;101493.75;;;6.93;73.14
17781;BME280;8498;52.516;13.790;2023-05-01T04:42:20;101480.28;;;6.99;72.84
17781;BME280;8498;52.516;13.790;2023-05-01T04:47:42;101478.97;;;7.09;72.34
17781;BME280;8498;52.516;13.790;2023-05-01T04:53:05;101476.88;;;7.17;71.85
17781;BME280;8498;52.516;13.790;2023-05-01T04:58:29;101470.38;;;7.26;71.60
17781;BME280;8498;52.516;13.790;2023-05-01T05:03:56;101472.81;;;7.30;71.70
17781;BME280;8498;52.516;13.790;2023-05-01T05:09:19;101473.22;;;7.42;71.42
17781;BME280;8498;52.516;13.790;2023-05-01T05:14:42;101470.84;;;7.56;70.36
17781;BME280;8498;52.516;13.790;2023-05-01T05:20:07;101461.72;;;7.63;70.41
17781;BME280;8498;52.516;13.790;2023-05-01T05:25:29;101462.09;;;7.74;70.06
17781;BME280;8498;52.516;13.790;2023-05-01T05:30:51;101457.16;;;7.87;69.26
17781;BME280;8498;52.516;13.790;2023-05-01T05:36:14;101444.13;;;8.01;68.97
17781;BME280;8498;52.516;13.790;2023-05-01T05:41:38;101446.09;;;8.16;68.36
17781;BME280;8498;52.516;13.790;2023-05-01T05:47:00;101445.47;;;8.30;68.17
17781;BME280;8498;52.516;13.790;2023-05-01T05:52:26;101436.03;;;8.43;67.84
17781;BME280;8498;52.516;13.790;2023-05-01T05:57:50;101431.88;;;8.56;67.57
17781;BME280;8498;52.516;13.790;2023-05-01T06:03:13;101431.78;;;8.76;66.65
17781;BME280;8498;52.516;13.790;2023-05-01T06:08:36;101431.53;;;9.00;66.27
17781;BME280;8498;52.516;13.790;2023-05-01T06:14:02;101429.00;;;9.14;65.65
17781;BME280;8498;52.516;13.790;2023-05-01T06:19:24;101418.91;;;9.39;64.40
17781;BME280;8498;52.516;13.790;2023-05-01T06:24:53;101420.38;;;9.62;63.72
17781;BME280;8498;52.516;13.790;2023-05-01T06:30:18;101416.03;;;9.77;63.79
17781;BME280;8498;52.516;13.790;2023-05-01T06:35:41;101411.63;;;9.93;62.09
17781;BME280;8498;52.516;13.790;2023-05-01T06:41:04;101413.59;;;10.22;62.94
17781;BME280;8498;52.516;13.790;2023-05-01T06:46:26;101409.91;;;10.41;61.37
17781;BME280;8498;52.516;13.790;2023-05-01T06:51:49;101409.88;;;10.72;60.68
17781;BME280;8498;52.516;13.790;2023-05-01T06:57:11;101404.69;;;11.00;58.11
17781;BME280;8498;52.516;13.790;2023-05-01T07:02:33;101407.38;;;11.30;57.31
17781;BME280;8498;52.516;13.790;2023-05-01T07:07:56;101403.13;;;11.56;56.69
17781;BME280;8498;52.516;13.790;2023-05-01T07:13:23;101394.22;;;11.71;55.63
17781;BME280;8498;52.516;13.790;2023-05-01T07:18:45;101399.38;;;12.03;55.01
17781;BME280;8498;52.516;13.790;2023-05-01T07:24:08;101391.72;;;12.25;53.86
17781;BME280;8498;52.516;13.790;2023-05-01T07:29:30;101393.59;;;12.52;53.27
17781;BME280;8498;52.516;13.790;2023-05-01T07:34:53;101380.22;;;12.66;53.10
17781;BME280;8498;52.516;13.790;2023-05-01T07:40:16;101381.81;;;12.95;52.53
17781;BME280;8498;52.516;13.790;2023-05-01T07:45:38;101374.25;;;13.29;52.24
17781;BME280;8498;52.516;13.790;2023-05-01T07:51:01;101363.75;;;13.51;50.62
17781;BME280;8498;52.516;13.790;2023-05-01T07:56:25;101369.72;;;13.92;50.77
17781;BME280;8498;52.516;13.790;2023-05-01T08:01:48;101351.31;;;14.13;49.84
17781;BME280;8498;52.516;13.790;2023-05-01T08:07:11;101345.03;;;14.38;48.41
17781;BME280;8498;52.516;13.790;2023-05-01T08:12:33;101344.16;;;14.50;47.38
17781;BME280;8498;52.516;13.790;2023-05-01T08:17:55;101337.22;;;14.72;46.32
17781;BME280;8498;52.516;13.790;2023-05-01T08:23:18;101326.09;;;14.89;45.99
17781;BME280;8498;52.516;13.790;2023-05-01T08:28:40;101331.78;;;15.19;45.08
17781;BME280;8498;52.516;13.790;2023-05-01T08:34:03;101329.38;;;15.38;44.12
17781;BME280;8498;52.516;13.790;2023-05-01T08:39:25;101321.16;;;15.64;43.67
17781;BME280;8498;52.516;13.790;2023-05-01T08:44:48;101316.16;;;15.93;43.17
17781;BME280;8498;52.516;13.790;2023-05-01T08:50:13;101313.53;;;16.25;41.65
17781;BME280;8498;52.516;13.790;2023-05-01T08:55:37;101303.75;;;16.46;40.83
17781;BME280;8498;52.516;13.790;2023-05-01T09:01:00;101299.69;;;16.83;39.89
17781;BME280;8498;52.516;13.790;2023-05-01T09:06:24;101286.34;;;17.14;40.42
17781;BME280;8498;52.516;13.790;2023-05-01T09:11:49;101283.94;;;17.11;39.12
17781;BME280;8498;52.516;13.790;2023-05-01T09:17:12;101274.81;;;17.44;39.62
17781;BME280;8498;52.516;13.790;2023-05-01T09:22:35;101262.56;;;17.60;37.70
17781;BME280;8498;52.516;13.790;2023-05-01T09:27:57;101260.88;;;18.09;36.66
17781;BME280;8498;52.516;13.790;2023-05-01T09:33:20;101252.78;;;17.90;35.67
17781;BME280;8498;52.516;13.790;2023-05-01T09:38:43;101244.44;;;17.83;36.19
17781;BME280;8498;52.516;13.790;2023-05-01T09:44:16;101237.41;;;18.30;36.61
17781;BME280;8498;52.516;13.790;2023-05-01T09:49:44;101228.06;;;18.92;34.97
17781;BME280;8498;52.516;13.790;2023-05-01T09:55:15;101212.19;;;18.80;34.90
17781;BME280;8498;52.516;13.790;2023-05-01T10:00:46;101201.22;;;19.20;35.45
17781;BME280;8498;52.516;13.790;2023-05-01T10:06:10;101198.19;;;19.23;35.01
17781;BME280;8498;52.516;13.790;2023-05-01T10:11:49;101194.56;;;19.78;33.58
17781;BME280;8498;52.516;13.790;2023-05-01T10:17:17;101194.41;;;19.98;35.09
17781;BME280;8498;52.516;13.790;2023-05-01T10:22:42;101182.94;;;20.49;34.22
17781;BME280;8498;52.516;13.790;2023-05-01T10:28:05;101167.19;;;20.88;32.96
17781;BME280;8498;52.516;13.790;2023-05-01T10:33:31;101168.41;;;20.68;33.03
17781;BME280;8498;52.516;13.790;2023-05-01T10:38:53;101156.78;;;20.93;33.72
17781;BME280;8498;52.516;13.790;2023-05-01T10:44:20;101148.44;;;21.38;33.08
17781;BME280;8498;52.516;13.790;2023-05-01T10:50:06;101139.88;;;21.59;32.06
17781;BME280;8498;52.516;13.790;2023-05-01T10:55:35;101123.72;;;21.33;33.63
17781;BME280;8498;52.516;13.790;2023-05-01T11:01:30;101114.63;;;22.01;32.46
17781;BME280;8498;52.516;13.790;2023-05-01T11:18:09;101090.78;;;22.20;30.68
17781;BME280;8498;52.516;13.790;2023-05-01T11:23:32;101081.28;;;22.32;31.29
17781;BME280;8498;52.516;13.790;2023-05-01T11:28:57;101058.56;;;22.58;31.29
17781;BME280;8498;52.516;13.790;2023-05-01T11:34:20;101065.59;;;22.20;31.48
17781;BME280;8498;52.516;13.790;2023-05-01T11:39:50;101051.28;;;21.45;33.25
17781;BME280;8498;52.516;13.790;2023-05-01T11:45:13;101051.22;;;21.20;31.48
17781;BME280;8498;52.516;13.790;2023-05-01T11:50:37;101032.38;;;21.61;31.30
17781;BME280;8498;52.516;13.790;2023-05-01T11:56:00;101026.97;;;22.34;29.92
17781;BME280;8498;52.516;13.790;2023-05-01T12:01:35;101016.53;;;23.17;31.26
17781;BME280;8498;52.516;13.790;2023-05-01T12:06:58;101004.91;;;23.62;29.93
17781;BME280;8498;52.516;13.790;2023-05-01T12:12:20;101001.22;;;23.78;29.28
17781;BME280;8498;52.516;13.790;2023-05-01T12:17:43;100997.44;;;23.87;29.56
17781;BME280;8498;52.516;13.790;2023-05-01T12:23:09;101000.88;;;24.33;28.03
17781;BME280;8498;52.516;13.790;2023-05-01T12:28:32;100996.06;;;23.15;30.29
17781;BME280;8498;52.516;13.790;2023-05-01T12:33:56;100994.69;;;23.41;29.22
17781;BME280;8498;52.516;13.790;2023-05-01T12:39:19;100981.94;;;23.50;28.99
17781;BME280;8498;52.516;13.790;2023-05-01T12:44:43;100967.75;;;23.17;29.55
17781;BME280;8498;52.516;13.790;2023-05-01T12:50:05;100956.06;;;22.86;29.66
17781;BME280;8498;52.516;13.790;2023-05-01T12:55:29;100951.03;;;22.83;31.56
17781;BME280;8498;52.516;13.790;2023-05-01T13:00:53;100946.94;;;22.87;30.93
17781;BME280;8498;52.516;13.790;2023-05-01T13:06:16;100944.06;;;23.11;29.88
17781;BME280;8498;52.516;13.790;2023-05-01T13:11:38;100928.91;;;23.25;30.93
17781;BME280;8498;52.516;13.790;2023-05-01T13:17:00;100932.34;;;23.41;29.59
17781;BME280;8498;52.516;13.790;2023-05-01T13:22:29;100931.63;;;23.25;30.28
17781;BME280;8498;52.516;13.790;2023-05-01T13:27:52;100926.84;;;23.04;30.39
17781;BME280;8498;52.516;13.790;2023-05-01T13:33:14;100927.81;;;23.11;30.17
17781;BME280;8498;52.516;13.790;2023-05-01T13:38:42;100919.16;;;23.61;30.50
17781;BME280;8498;52.516;13.790;2023-05-01T13:44:07;100923.31;;;24.01;28.75
17781;BME280;8498;52.516;13.790;2023-05-01T13:49:29;100916.16;;;23.56;28.54
17781;BME280;8498;52.516;13.790;2023-05-01T13:54:54;100914.44;;;23.10;31.36
17781;BME280;8498;52.516;13.790;2023-05-01T14:00:19;100899.09;;;22.71;30.43
17781;BME280;8498;52.516;13.790;2023-05-01T14:05:41;100893.00;;;23.23;30.44
17781;BME280;8498;52.516;13.790;2023-05-01T14:11:07;100890.16;;;24.29;28.86
17781;BME280;8498;52.516;13.790;2023-05-01T14:16:30;100876.81;;;24.84;28.07
17781;BME280;8498;52.516;13.790;2023-05-01T14:21:53;100861.94;;;25.23;27.05
17781;BME280;8498;52.516;13.790;2023-05-01T14:27:15;100857.22;;;24.53;27.73
17781;BME280;8498;52.516;13.790;2023-05-01T14:32:39;100844.19;;;24.84;27.63
17781;BME280;8498;52.516;13.790;2023-05-01T14:38:12;100834.38;;;25.05;27.49
17781;BME280;8498;52.516;13.790;2023-05-01T14:43:35;100830.78;;;24.98;27.73
17781;BME280;8498;52.516;13.790;2023-05-01T14:49:01;100836.69;;;24.65;28.14
17781;BME280;8498;52.516;13.790;2023-05-01T14:54:23;100827.00;;;24.77;27.69
17781;BME280;8498;52.516;13.790;2023-05-01T14:59:45;100821.41;;;24.85;27.44
17781;BME280;8498;52.516;13.790;2023-05-01T15:05:08;100820.38;;;25.01;27.93
17781;BME280;8498;52.516;13.790;2023-05-01T15:10:31;100812.22;;;24.65;27.78
17781;BME280;8498;52.516;13.790;2023-05-01T15:15:53;100815.63;;;23.87;28.57
17781;BME280;8498;52.516;13.790;2023-05-01T15:21:16;100815.59;;;24.17;28.76
17781;BME280;8498;52.516;13.790;2023-05-01T15:26:39;100807.16;;;24.11;28.24
17781;BME280;8498;52.516;13.790;2023-05-01T15:32:05;100805.84;;;24.37;27.31
17781;BME280;8498;52.516;13.790;2023-05-01T15:37:34;100797.09;;;24.05;27.34
17781;BME280;8498;52.516;13.790;2023-05-01T15:42:57;100797.19;;;23.68;28.19
17781;BME280;8498;52.516;13.790;2023-05-01T15:48:19;100800.09;;;23.29;29.29
17781;BME280;8498;52.516;13.790;2023-05-01T15:53:42;100801.81;;;23.07;30.19
17781;BME280;8498;52.516;13.790;2023-05-01T15:59:06;100787.03;;;22.72;30.91
17781;BME280;8498;52.516;13.790;2023-05-01T16:04:28;100787.97;;;22.56;31.47
17781;BME280;8498;52.516;13.790;2023-05-01T16:09:51;100792.91;;;22.22;30.57
17781;BME280;8498;52.516;13.790;2023-05-01T16:15:13;100786.91;;;22.04;30.44
17781;BME280;8498;52.516;13.790;2023-05-01T16:20:41;100788.31;;;21.83;29.78
17781;BME280;8498;52.516;13.790;2023-05-01T16:26:04;100786.00;;;21.64;30.42
17781;BME280;8498;52.516;13.790;2023-05-01T16:31:39;100780.63;;;21.56;31.08
17781;BME280;8498;52.516;13.790;2023-05-01T16:37:04;100783.84;;;21.51;31.01
17781;BME280;8498;52.516;13.790;2023-05-01T16:42:27;100785.56;;;21.44;31.74
17781;BME280;8498;52.516;13.790;2023-05-01T16:47:49;100791.16;;;21.35;31.88
17781;BME280;8498;52.516;13.790;2023-05-01T16:53:12;100790.16;;;21.28;32.33
17781;BME280;8498;52.516;13.790;2023-05-01T16:58:35;100780.84;;;21.14;31.95
17781;BME280;8498;52.516;13.790;2023-05-01T17:03:58;100779.84;;;21.07;32.37
17781;BME280;8498;52.516;13.790;2023-05-01T17:09:20;100785.06;;;21.00;33.41
17781;BME280;8498;52.516;13.790;2023-05-01T17:14:50;100782.03;;;20.87;33.42
17781;BME280;8498;52.516;13.790;2023-05-01T17:20:15;100783.38;;;20.75;33.97
17781;BME280;8498;52.516;13.790;2023-05-01T17:25:37;100779.66;;;20.60;34.70
17781;BME280;8498;52.516;13.790;2023-05-01T17:31:00;100768.84;;;20.43;35.48
17781;BME280;8498;52.516;13.790;2023-05-01T17:36:22;100775.28;;;20.08;36.61
17781;BME280;8498;52.516;13.790;2023-05-01T17:41:45;100778.66;;;19.68;40.15
17781;BME280;8498;52.516;13.790;2023-05-01T17:47:07;100776.16;;;19.23;41.99
17781;BME280;8498;52.516;13.790;2023-05-01T17:52:31;100778.09;;;18.87;42.83
17781;BME280;8498;52.516;13.790;2023-05-01T17:57:53;100781.44;;;18.54;43.73
17781;BME280;8498;52.516;13.790;2023-05-01T18:03:16;100777.28;;;18.24;44.32
17781;BME280;8498;52.516;13.790;2023-05-01T18:08:38;100769.38;;;17.95;46.00
17781;BME280;8498;52.516;13.790;2023-05-01T18:14:01;100774.59;;;17.69;47.44
17781;BME280;8498;52.516;13.790;2023-05-01T18:19:25;100766.44;;;17.51;48.90
17781;BME280;8498;52.516;13.790;2023-05-01T18:24:48;100771.72;;;17.34;50.09
17781;BME280;8498;52.516;13.790;2023-05-01T18:30:10;100761.59;;;17.08;51.61
17781;BME280;8498;52.516;13.790;2023-05-01T18:35:36;100766.56;;;16.94;51.87
17781;BME280;8498;52.516;13.790;2023-05-01T18:40:59;100759.94;;;16.78;52.30
17781;BME280;8498;52.516;13.790;2023-05-01T18:46:21;100760.09;;;16.67;53.02
17781;BME280;8498;52.516;13.790;2023-05-01T18:51:44;100771.06;;;16.45;52.99
17781;BME280;8498;52.516;13.790;2023-05-01T18:57:06;100765.69;;;16.26;52.61
17781;BME280;8498;52.516;13.790;2023-05-01T19:02:28;100774.41;;;16.08;53.79
17781;BME280;8498;52.516;13.790;2023-05-01T19:07:51;100773.06;;;15.93;54.67
17781;BME280;8498;52.516;13.790;2023-05-01T19:13:16;100777.56;;;15.83;55.76
17781;BME280;8498;52.516;13.790;2023-05-01T19:18:42;100773.69;;;15.66;56.57
17781;BME280;8498;52.516;13.790;2023-05-01T19:24:08;100781.19;;;15.52;56.78
17781;BME280;8498;52.516;13.790;2023-05-01T19:29:32;100773.50;;;15.37;57.19
17781;BME280;8498;52.516;13.790;2023-05-01T19:34:55;100774.84;;;15.22;58.23
17781;BME280;8498;52.516;13.790;2023-05-01T19:40:21;100777.84;;;15.08;58.85
17781;BME280;8498;52.516;13.790;2023-05-01T19:45:44;100767.19;;;14.97;59.69
17781;BME280;8498;52.516;13.790;2023-05-01T19:51:08;100767.25;;;14.86;59.61
17781;BME280;8498;52.516;13.790;2023-05-01T19:56:31;100778.75;;;14.77;59.66
17781;BME280;8498;52.516;13.790;2023-05-01T20:01:56;100771.63;;;14.66;59.84
17781;BME280;8498;52.516;13.790;2023-05-01T20:07:23;100758.06;;;14.58;61.10
17781;BME280;8498;52.516;13.790;2023-05-01T20:12:51;100764.91;;;14.51;62.16
17781;BME280;8498;52.516;13.790;2023-05-01T20:18:15;100768.06;;;14.45;62.29
17781;BME280;8498;52.516;13.790;2023-05-01T20:23:41;100755.19;;;14.39;61.38
17781;BME280;8498;52.516;13.790;2023-05-01T20:29:06;100756.69;;;14.31;60.96
17781;BME280;8498;52.516;13.790;2023-05-01T20:34:32;100760.06;;;14.22;60.06
17781;BME280;8498;52.516;13.790;2023-05-01T20:39:58;100749.28;;;14.13;60.53
17781;BME280;8498;52.516;13.790;2023-05-01T20:45:27;100752.34;;;14.08;64.39
17781;BME280;8498;52.516;13.790;2023-05-01T20:50:55;100755.16;;;13.95;65.41
17781;BME280;8498;52.516;13.790;2023-05-01T20:56:20;100763.94;;;13.86;65.58
17781;BME280;8498;52.516;13.790;2023-05-01T21:01:51;100756.44;;;13.80;66.32
17781;BME280;8498;52.516;13.790;2023-05-01T21:07:17;100761.25;;;13.75;65.66
17781;BME280;8498;52.516;13.790;2023-05-01T21:12:40;100758.84;;;13.72;64.95
17781;BME280;8498;52.516;13.790;2023-05-01T21:18:03;100763.09;;;13.64;65.62
17781;BME280;8498;52.516;13.790;2023-05-01T21:23:26;100766.38;;;13.56;66.98
17781;BME280;8498;52.516;13.790;2023-05-01T21:28:48;100775.84;;;13.49;66.57
17781;BME280;8498;52.516;13.790;2023-05-01T21:34:11;100776.44;;;13.41;66.87
17781;BME280;8498;52.516;13.790;2023-05-01T21:39:38;100770.72;;;13.35;66.95
17781;BME280;8498;52.516;13.790;2023-05-01T21:45:08;100776.91;;;13.35;67.18
17781;BME280;8498;52.516;13.790;2023-05-01T21:50:34;100776.91;;;13.35;66.37
17781;BME280;8498;52.516;13.790;2023-05-01T21:55:56;100783.09;;;13.25;67.12
17781;BME280;8498;52.516;13.790;2023-05-01T22:01:20;100779.44;;;13.14;68.93
17781;BME280;8498;52.516;13.790;2023-05-01T22:06:43;100785.19;;;13.08;68.55
17781;BME280;8498;52.516;13.790;2023-05-01T22:12:05;100796.56;;;12.99;70.21
17781;BME280;8498;52.516;13.790;2023-05-01T22:17:28;100796.94;;;12.95;70.20
17781;BME280;8498;52.516;13.790;2023-05-01T22:22:50;100792.56;;;12.94;70.44
17781;BME280;8498;52.516;13.790;2023-05-01T22:28:12;100794.16;;;12.96;70.18
17781;BME280;8498;52.516;13.790;2023-05-01T22:33:38;100790.75;;;12.94;69.86
17781;BME280;8498;52.516;13.790;2023-05-01T22:39:01;100791.19;;;12.88;71.26
17781;BME280;8498;52.516;13.790;2023-05-01T22:44:24;100788.53;;;12.88;71.65
17781;BME280;8498;52.516;13.790;2023-05-01T22:49:47;100796.41;;;12.90;70.95
17781;BME280;8498;52.516;13.790;2023-05-01T22:55:09;100784.69;;;12.92;70.50
17781;BME280;8498;52.516;13.790;2023-05-01T23:00:32;100793.41;;;12.94;69.66
17781;BME280;8498;52.516;13.790;2023-05-01T23:05:54;100794.50;;;12.92;69.50
17781;BME280;8498;52.516;13.790;2023-05-01T23:11:17;100797.53;;;12.87;70.20
17781;BME280;8498;52.516;13.790;2023-05-01T23:16:40;100801.38;;;12.83;70.85
17781;BME280;8498;52.516;13.790;2023-05-01T23:22:07;100802.97;;;12.85;71.04
17781;BME280;8498;52.516;13.790;2023-05-01T23:27:32;100799.44;;;12.85;70.39
17781;BME280;8498;52.516;13.790;2023-05-01T23:32:56;100796.53;;;12.88;70.86
17781;BME280;8498;52.516;13.790;2023-05-01T23:38:19;100795.19;;;12.82;71.50
17781;BME280;8498;52.516;13.790;2023-05-01T23:43:42;100791.03;;;12.78;71.18
17781;BME280;8498;52.516;13.790;2023-05-01T23:49:07;100787.03;;;12.73;71.13
17781;BME280;8498;52.516;13.790;2023-05-01T23:54:30;100782.28;;;12.65;72.60
17781;BME280;8498;52.516;13.790;2023-05-01T23:59:52;100790.63;;;12.61;73.49
